Station: Mudgee  

  Atmospheric Gas Attenuation - ITU Rec 676-11   ----------------- dB/100km -----------------
Date Time Temp RH % AH g/m3 Dew Point Wind Direction Speed kph Gust kph Barometer mB Rainfall Since 9am 24GHz 47GHz 76GHz 122GHz 134GHz 241GHz
08/05 12:30 13.5 56 6.55 4.9 35 46 1021.6 0 15.2 23.1 32.3 84.4 73.1 249.9
08/05 12:20 13.4 55 6.39 4.6 32 37 1021.7 0 14.9 22.9 31.8 82.9 71.3 243.3
08/05 12:10 13.6 54 6.36 4.5 39 43 1022.1 0 14.8 22.8 31.6 82.4 70.8 241.5
08/05 12:00 13.4 55 6.39 4.6 32 39 1022.2 0 14.9 22.9 31.8 83.0 71.3 243.4
08/05 11:50 13 56 6.35 4.4 39 43 1022.3 0 14.8 22.9 31.8 83.0 71.2 242.9
08/05 11:40 13.2 55 6.32 4.4 26 32 1022.6 0 14.8 22.8 31.6 82.5 70.7 241.0
08/05 11:30 12.8 57 6.39 4.5 26 37 1022.8 0 14.9 23.1 32.1 83.6 71.9 245.3
08/05 11:20 13 57 6.46 4.7 22 28 1023 0 15.1 23.1 32.3 84.1 72.6 247.8
08/05 11:10 12.4 58 6.34 4.4 24 28 1023.1 0 14.8 23.1 32.0 83.6 71.7 244.4
08/05 11:00 12.3 59 6.41 4.5 22 33 1023.3 0 15.0 23.2 32.4 84.4 72.6 247.8
08/05 10:50 11.4 60 6.16 3.9 28 37 1023.4 0 14.5 23.1 31.8 82.8 70.3 239.6
08/05 10:40 11.4 60 6.16 3.9 22 26 1023.4 0 14.5 23.1 31.8 82.8 70.3 239.6
08/05 10:30 11.2 61 6.18 4 24 35 1023.5 0 14.5 23.2 31.9 83.2 70.8 241.1
08/05 10:20 11 61 6.11 3.8 20 24 1023.4 0 14.4 23.1 31.7 82.7 70.1 238.6
08/05 10:10 11.1 59 5.94 3.4 28 33 1023.4 0 14.0 22.8 31.1 80.9 67.8 230.9
08/05 10:00 11 60 6.01 3.5 20 37 1023.4 0 14.2 22.9 31.4 81.7 68.8 234.2
08/05 09:50 10.9 60 5.97 3.5 20 26 1023.2 0 14.1 22.9 31.2 81.4 68.4 232.7
08/05 09:40 10.5 59 5.72 2.8 17 20 1023.2 0 13.6 22.6 30.4 79.3 65.6 222.9
08/05 09:30 11.2 60 6.08 3.7 20 30 1023.1 0 14.3 23.0 31.5 82.2 69.5 236.7
08/05 09:20 10.5 60 5.82 3.1 19 22 1023 0 13.8 22.8 30.8 80.3 66.8 227.3
08/05 09:10 10.3 64 6.13 3.8 15 19 1023 0 14.5 23.3 32.1 83.6 70.9 241.5
08/05 09:00 9.2 65 5.81 3 13 19 1023.1 0 13.8 23.1 31.3 81.5 67.8 230.6
08/05 08:50 9.1 64 5.68 2.7 11 15 1023.1 0 13.5 22.9 30.8 80.3 66.3 225.1
08/05 08:40 9 64 5.64 2.6 15 17 1023.2 0 13.5 22.9 30.7 80.0 65.8 223.6
08/05 08:30 8.8 65 5.66 2.6 17 20 1023.3 0 13.5 23.0 30.9 80.4 66.3 225.1
08/05 08:20 8.2 66 5.53 2.2 15 17 1023.2 0 13.3 22.9 30.6 79.6 65.1 220.9
08/05 08:10 8 68 5.62 2.5 17 20 1023.1 0 13.5 23.1 31.0 80.8 66.4 225.5
08/05 08:00 7.7 69 5.6 2.4 17 20 1023.2 0 13.4 23.1 31.1 80.9 66.4 225.5
08/05 07:50 7.4 71 5.65 2.5 17 19 1023 0 13.5 23.3 31.4 81.7 67.3 228.5
08/05 07:40 7 71 5.5 2.1 19 20 1023 0 13.2 23.2 30.9 80.5 65.7 222.9
08/05 07:30 6.7 74 5.63 2.4 17 20 1023 0 13.5 23.4 31.6 82.2 67.7 229.7
08/05 07:20 6.4 75 5.59 2.3 15 19 1022.9 0 13.5 23.5 31.5 82.1 67.4 228.7
08/05 07:10 6.3 76 5.63 2.4 15 17 1022.8 0 13.5 23.5 31.7 82.6 68.0 230.8
08/05 07:00 5.6 78 5.52 2.1 11 13 1022.9 0 13.3 23.5 31.5 82.2 67.2 227.8
08/05 06:50 5.7 76 5.41 1.8 11 11 1022.7 0 13.1 23.3 31.1 80.9 65.6 222.4
08/05 06:40 6.5 74 5.55 2.2 9 11 1022.6 0 13.4 23.4 31.3 81.5 66.8 226.5
08/05 06:30 6.7 73 5.55 2.2 11 13 1022.6 0 13.4 23.3 31.2 81.3 66.6 225.9
08/05 06:20 6.7 74 5.63 2.4 9 11 1022.6 0 13.5 23.4 31.5 82.2 67.6 229.6
08/05 06:10 6.7 73 5.55 2.2 13 15 1022.6 0 13.4 23.3 31.2 81.3 66.6 225.9
08/05 06:00 6.6 74 5.59 2.3 11 13 1022.5 0 13.4 23.4 31.4 81.8 67.2 228.0
08/05 05:50 6.4 76 5.67 2.5 9 11 1022.5 0 13.6 23.6 31.8 82.9 68.4 232.3
08/05 05:40 6.2 77 5.67 2.5 7 9 1022.4 0 13.6 23.6 31.9 83.1 68.6 232.8
08/05 05:30 6.1 75 5.48 2 2 9 1022.3 0 13.2 23.3 31.2 81.2 66.2 224.4
08/05 05:20 6.1 76 5.56 2.2 0 0 1022.2 0 13.4 23.5 31.5 82.0 67.2 228.0
08/05 05:10 5.8 77 5.52 2.1 4 6 1022.2 0 13.3 23.5 31.4 81.9 66.9 227.0
08/05 05:00 6 77 5.59 2.3 11 17 1022.1 0 13.5 23.5 31.6 82.4 67.7 229.7
08/05 04:50 5.7 77 5.48 2 13 15 1022.1 0 13.2 23.4 31.3 81.6 66.5 225.5
08/05 04:40 5.8 76 5.45 1.9 13 15 1022 0 13.2 23.4 31.2 81.1 66.0 223.8
08/05 04:30 5.5 76 5.34 1.6 9 13 1022.2 0 12.9 23.3 30.8 80.3 64.8 219.6
08/05 04:20 5.2 77 5.31 1.5 7 9 1022.1 0 12.9 23.3 30.8 80.3 64.7 219.1
08/05 04:10 5.1 75 5.13 1 7 9 1022.2 0 12.5 23.0 30.2 78.5 62.4 211.1
08/05 04:00 5.2 76 5.24 1.3 13 17 1021.9 0 12.7 23.2 30.5 79.5 63.8 215.8
08/05 03:50 5.3 74 5.13 1.1 13 15 1021.7 0 12.5 23.0 30.1 78.2 62.2 210.5
08/05 03:40 5.2 74 5.1 1 13 15 1021.9 0 12.4 22.9 30.0 78.0 61.9 209.4
08/05 03:30 5.4 73 5.1 1 13 17 1021.9 0 12.4 22.9 29.9 77.8 61.8 208.9
08/05 03:20 5.2 75 5.17 1.1 13 17 1022 0 12.6 23.1 30.3 78.8 62.9 212.6
08/05 03:10 5 75 5.1 0.9 13 15 1022 0 12.5 23.0 30.1 78.2 62.1 209.9
08/05 03:00 4.8 75 5.03 0.8 6 9 1022.1 0 12.3 22.9 29.9 77.7 61.4 207.3
08/05 02:50 5.1 73 5 0.7 7 7 1022.1 0 12.2 22.8 29.6 77.1 60.7 205.1
08/05 02:40 4.8 74 4.97 0.6 2 6 1022.1 0 12.2 22.8 29.6 77.1 60.6 204.5
08/05 02:30 5.2 71 4.89 0.4 6 7 1022.1 0 12.0 22.6 29.2 75.9 59.2 199.9
08/05 02:20 5.4 70 4.89 0.4 6 6 1022.2 0 12.0 22.6 29.1 75.7 59.1 199.4
08/05 02:10 5.4 70 4.89 0.4 6 6 1022.3 0 12.0 22.6 29.1 75.7 59.1 199.4
08/05 02:00 6.1 68 4.97 0.6 11 24 1022.3 0 12.1 22.5 29.2 75.8 59.6 201.3
08/05 01:50 5.8 68 4.87 0.4 7 9 1022.3 0 11.9 22.4 28.9 75.1 58.5 197.5
08/05 01:40 5.7 69 4.91 0.5 13 15 1022.4 0 12.0 22.5 29.1 75.6 59.1 199.6
08/05 01:30 5.7 69 4.91 0.5 13 30 1022.4 0 12.0 22.5 29.1 75.6 59.1 199.6
08/05 01:20 5.9 68 4.91 0.5 13 15 1022.5 0 12.0 22.5 29.0 75.4 59.0 199.1
08/05 01:10 5.5 70 4.92 0.5 15 17 1022.7 0 12.0 22.6 29.2 75.9 59.4 200.6
08/05 01:00 5.9 68 4.91 0.5 17 28 1022.8 0 12.0 22.5 29.0 75.5 59.0 199.2
08/05 00:50 5.9 67 4.83 0.3 19 20 1022.8 0 11.8 22.4 28.7 74.6 58.0 195.6
08/05 00:40 5.9 67 4.83 0.3 15 17 1022.7 0 11.8 22.4 28.7 74.6 58.0 195.6
08/05 00:20 6.2 67 4.93 0.5 19 20 1022.7 0 12.0 22.5 29.0 75.4 59.0 199.3
08/05 00:10 5.8 67 4.8 0.2 19 20 1022.8 0 11.8 22.4 28.6 74.4 57.7 194.5
08/05 00:00 6.3 66 4.89 0.4 19 30 1022.9 0 12.0 22.4 28.8 74.9 58.5 197.3
07/05 23:50 6.1 66 4.82 0.2 20 28 1022.7 0 11.8 22.3 28.6 74.3 57.7 194.6
07/05 23:40 6.2 65 4.78 0.1 15 17 1022.6 0 11.7 22.2 28.4 73.8 57.1 192.6
07/05 23:30 6.1 65 4.75 0 17 26 1022.8 0 11.7 22.2 28.3 73.6 56.8 191.5
07/05 23:20 6.6 63 4.76 0.1 24 28 1022.7 0 11.7 22.1 28.2 73.3 56.6 190.8
07/05 23:10 6.7 63 4.79 0.2 22 26 1022.7 0 11.7 22.1 28.3 73.5 56.9 191.8
07/05 23:00 6.3 64 4.74 0 19 26 1023 0 11.6 22.1 28.2 73.3 56.6 190.6
07/05 22:50 5.9 65 4.69 -0.2 17 17 1022.9 0 11.5 22.2 28.2 73.2 56.2 189.4
07/05 22:40 6 65 4.72 -0.1 15 20 1022.8 0 11.6 22.2 28.3 73.4 56.5 190.4
07/05 22:30 5.9 65 4.69 -0.2 15 19 1023 0 11.5 22.2 28.2 73.2 56.2 189.4
07/05 22:20 6.2 63 4.64 -0.3 17 17 1022.9 0 11.4 22.0 27.9 72.4 55.4 186.4
07/05 22:10 6.4 63 4.7 -0.1 19 20 1023 0 11.5 22.1 28.1 72.8 56.0 188.6
07/05 22:00 6.6 62 4.68 -0.1 22 33 1023 0 11.5 22.0 27.9 72.5 55.6 187.3
07/05 21:50 6.9 61 4.7 -0.1 28 32 1022.9 0 11.5 21.9 27.9 72.4 55.6 187.4
07/05 21:40 7 60 4.65 -0.2 26 32 1022.9 0 11.4 21.8 27.7 71.8 54.9 185.0
07/05 21:30 6.9 61 4.7 -0.1 20 28 1023.1 0 11.5 21.9 27.9 72.4 55.6 187.5
07/05 21:20 7.2 60 4.71 0 26 28 1023 0 11.5 21.9 27.8 72.2 55.6 187.2
07/05 21:10 6.8 62 4.74 0 22 26 1022.9 0 11.6 22.0 28.1 72.9 56.2 189.4
07/05 21:00 6.6 61 4.61 -0.4 19 22 1023.1 0 11.3 21.9 27.7 71.8 54.7 184.2
07/05 20:50 7.1 59 4.6 -0.4 17 20 1023.1 0 11.3 21.7 27.4 71.2 54.3 182.6
07/05 20:40 7.4 58 4.61 -0.3 13 15 1022.9 0 11.3 21.7 27.4 71.0 54.2 182.4
07/05 20:30 7.2 57 4.48 -0.7 17 19 1022.9 0 11.1 21.5 27.0 69.9 52.7 177.2
07/05 20:20 7.3 57 4.51 -0.6 17 20 1022.8 0 11.1 21.6 27.0 70.1 53.0 178.2
07/05 20:10 7.3 57 4.51 -0.6 13 17 1022.7 0 11.1 21.5 27.0 70.1 53.0 178.2
07/05 20:00 7.3 56 4.43 -0.9 17 26 1022.6 0 10.9 21.4 26.7 69.3 52.0 174.8
07/05 19:50 7.3 56 4.43 -0.9 13 13 1022.5 0 10.9 21.4 26.7 69.3 52.0 174.7

Last Refresh: 08-May-2026 12:10:11

Bureau of Meteorology